sensor_id;sensor_type;location;lat;lon;timestamp;pressure;altitude;pressure_sealevel;temperature;humidity
28448;BME280;15675;52.870;-1.416;2023-01-28T00:01:41;102644.22;;;5.76;100.00
28448;BME280;15675;52.870;-1.416;2023-01-28T00:04:06;102647.09;;;5.66;100.00
28448;BME280;15675;52.870;-1.416;2023-01-28T00:06:32;102649.97;;;5.56;100.00
28448;BME280;15675;52.870;-1.416;2023-01-28T00:08:57;102643.16;;;5.41;100.00
28448;BME280;15675;52.870;-1.416;2023-01-28T00:11:25;102648.06;;;5.36;100.00
28448;BME280;15675;52.870;-1.416;2023-01-28T00:13:51;102639.84;;;5.27;100.00
28448;BME280;15675;52.870;-1.416;2023-01-28T00:16:17;102635.50;;;5.26;100.00
28448;BME280;15675;52.870;-1.416;2023-01-28T00:18:43;102632.28;;;5.30;100.00
28448;BME280;15675;52.870;-1.416;2023-01-28T00:21:13;102637.44;;;5.30;100.00
28448;BME280;15675;52.870;-1.416;2023-01-28T00:23:41;102639.28;;;5.33;100.00
28448;BME280;15675;52.870;-1.416;2023-01-28T00:26:11;102641.84;;;5.33;100.00
28448;BME280;15675;52.870;-1.416;2023-01-28T00:28:37;102637.44;;;5.15;100.00
28448;BME280;15675;52.870;-1.416;2023-01-28T00:31:07;102636.19;;;5.24;100.00
28448;BME280;15675;52.870;-1.416;2023-01-28T00:33:35;102640.72;;;5.28;100.00
28448;BME280;15675;52.870;-1.416;2023-01-28T00:36:01;102638.00;;;5.41;100.00
28448;BME280;15675;52.870;-1.416;2023-01-28T00:38:28;102638.84;;;5.40;100.00
28448;BME280;15675;52.870;-1.416;2023-01-28T00:40:53;102630.28;;;5.41;100.00
28448;BME280;15675;52.870;-1.416;2023-01-28T00:43:20;102634.66;;;5.42;100.00
28448;BME280;15675;52.870;-1.416;2023-01-28T00:45:46;102625.06;;;5.40;100.00
28448;BME280;15675;52.870;-1.416;2023-01-28T00:48:11;102626.38;;;5.48;100.00
28448;BME280;15675;52.870;-1.416;2023-01-28T00:50:37;102625.97;;;5.57;100.00
28448;BME280;15675;52.870;-1.416;2023-01-28T00:53:04;102625.03;;;5.71;100.00
28448;BME280;15675;52.870;-1.416;2023-01-28T00:55:29;102622.06;;;5.63;100.00
28448;BME280;15675;52.870;-1.416;2023-01-28T00:57:55;102619.31;;;5.29;100.00
28448;BME280;15675;52.870;-1.416;2023-01-28T01:00:20;102617.22;;;5.22;100.00
28448;BME280;15675;52.870;-1.416;2023-01-28T01:02:46;102610.28;;;5.21;100.00
28448;BME280;15675;52.870;-1.416;2023-01-28T01:05:11;102625.38;;;5.14;100.00
28448;BME280;15675;52.870;-1.416;2023-01-28T01:07:37;102623.19;;;5.37;100.00
28448;BME280;15675;52.870;-1.416;2023-01-28T01:10:15;102627.31;;;5.18;100.00
28448;BME280;15675;52.870;-1.416;2023-01-28T01:12:41;102629.72;;;5.15;100.00
28448;BME280;15675;52.870;-1.416;2023-01-28T01:15:08;102622.91;;;5.47;100.00
28448;BME280;15675;52.870;-1.416;2023-01-28T01:17:36;102615.75;;;5.27;100.00
28448;BME280;15675;52.870;-1.416;2023-01-28T01:20:03;102613.91;;;5.24;100.00
28448;BME280;15675;52.870;-1.416;2023-01-28T01:22:32;102614.09;;;5.12;100.00
28448;BME280;15675;52.870;-1.416;2023-01-28T01:24:58;102621.63;;;5.24;100.00
28448;BME280;15675;52.870;-1.416;2023-01-28T01:27:24;102621.25;;;5.64;100.00
28448;BME280;15675;52.870;-1.416;2023-01-28T01:29:49;102622.72;;;5.44;100.00
28448;BME280;15675;52.870;-1.416;2023-01-28T01:32:15;102623.06;;;5.19;100.00
28448;BME280;15675;52.870;-1.416;2023-01-28T01:34:40;102619.97;;;5.10;100.00
28448;BME280;15675;52.870;-1.416;2023-01-28T01:37:06;102620.28;;;5.31;100.00
28448;BME280;15675;52.870;-1.416;2023-01-28T01:39:33;102621.22;;;5.48;100.00
28448;BME280;15675;52.870;-1.416;2023-01-28T01:41:58;102617.47;;;5.11;100.00
28448;BME280;15675;52.870;-1.416;2023-01-28T01:44:51;102610.41;;;5.39;100.00
28448;BME280;15675;52.870;-1.416;2023-01-28T01:47:19;102611.75;;;5.63;100.00
28448;BME280;15675;52.870;-1.416;2023-01-28T01:49:47;102618.22;;;5.40;100.00
28448;BME280;15675;52.870;-1.416;2023-01-28T01:52:16;102608.94;;;5.27;100.00
28448;BME280;15675;52.870;-1.416;2023-01-28T01:54:46;102605.53;;;5.28;100.00
28448;BME280;15675;52.870;-1.416;2023-01-28T01:57:22;102609.56;;;5.23;100.00
28448;BME280;15675;52.870;-1.416;2023-01-28T01:59:49;102605.06;;;5.04;100.00
28448;BME280;15675;52.870;-1.416;2023-01-28T02:02:15;102603.94;;;4.99;100.00
28448;BME280;15675;52.870;-1.416;2023-01-28T02:04:42;102607.31;;;4.98;100.00
28448;BME280;15675;52.870;-1.416;2023-01-28T02:07:11;102611.66;;;4.99;100.00
28448;BME280;15675;52.870;-1.416;2023-01-28T02:09:38;102604.63;;;4.81;100.00
28448;BME280;15675;52.870;-1.416;2023-01-28T02:14:38;102600.13;;;4.77;100.00
28448;BME280;15675;52.870;-1.416;2023-01-28T02:17:05;102616.75;;;4.68;100.00
28448;BME280;15675;52.870;-1.416;2023-01-28T02:19:36;102630.47;;;4.98;100.00
28448;BME280;15675;52.870;-1.416;2023-01-28T02:36:23;102590.97;;;4.82;100.00
28448;BME280;15675;52.870;-1.416;2023-01-28T02:38:53;102578.44;;;4.89;100.00
28448;BME280;15675;52.870;-1.416;2023-01-28T02:41:28;102578.16;;;4.68;100.00
28448;BME280;15675;52.870;-1.416;2023-01-28T02:43:56;102575.38;;;4.79;100.00
28448;BME280;15675;52.870;-1.416;2023-01-28T02:46:34;102568.81;;;4.84;100.00
28448;BME280;15675;52.870;-1.416;2023-01-28T02:49:30;102567.16;;;5.01;100.00
28448;BME280;15675;52.870;-1.416;2023-01-28T02:57:12;102572.44;;;4.88;100.00
28448;BME280;15675;52.870;-1.416;2023-01-28T03:05:03;102579.69;;;4.95;100.00
28448;BME280;15675;52.870;-1.416;2023-01-28T03:07:33;102586.34;;;5.07;100.00
28448;BME280;15675;52.870;-1.416;2023-01-28T03:10:03;102578.28;;;5.00;100.00
28448;BME280;15675;52.870;-1.416;2023-01-28T03:12:32;102568.00;;;4.86;100.00
28448;BME280;15675;52.870;-1.416;2023-01-28T03:15:21;102564.28;;;4.80;100.00
28448;BME280;15675;52.870;-1.416;2023-01-28T03:21:29;102578.91;;;4.96;100.00
28448;BME280;15675;52.870;-1.416;2023-01-28T03:27:17;102569.94;;;4.90;100.00
28448;BME280;15675;52.870;-1.416;2023-01-28T03:30:07;102564.00;;;4.91;100.00
28448;BME280;15675;52.870;-1.416;2023-01-28T03:32:53;102570.66;;;5.18;100.00
28448;BME280;15675;52.870;-1.416;2023-01-28T03:35:38;102573.53;;;5.23;100.00
28448;BME280;15675;52.870;-1.416;2023-01-28T03:38:23;102568.16;;;5.35;100.00
28448;BME280;15675;52.870;-1.416;2023-01-28T03:40:51;102562.28;;;5.06;100.00
28448;BME280;15675;52.870;-1.416;2023-01-28T03:43:19;102569.16;;;4.91;100.00
28448;BME280;15675;52.870;-1.416;2023-01-28T03:45:44;102578.78;;;5.10;100.00
28448;BME280;15675;52.870;-1.416;2023-01-28T03:48:11;102576.66;;;5.17;100.00
28448;BME280;15675;52.870;-1.416;2023-01-28T03:50:39;102580.97;;;5.18;100.00
28448;BME280;15675;52.870;-1.416;2023-01-28T03:53:04;102582.25;;;5.10;100.00
28448;BME280;15675;52.870;-1.416;2023-01-28T03:55:40;102584.53;;;5.52;100.00
28448;BME280;15675;52.870;-1.416;2023-01-28T03:58:07;102577.34;;;5.46;100.00
28448;BME280;15675;52.870;-1.416;2023-01-28T04:00:33;102575.25;;;5.08;100.00
28448;BME280;15675;52.870;-1.416;2023-01-28T04:03:05;102576.97;;;5.24;100.00
28448;BME280;15675;52.870;-1.416;2023-01-28T04:05:44;102590.16;;;5.45;100.00
28448;BME280;15675;52.870;-1.416;2023-01-28T04:08:10;102582.72;;;5.34;100.00
28448;BME280;15675;52.870;-1.416;2023-01-28T04:10:38;102581.34;;;5.41;100.00
28448;BME280;15675;52.870;-1.416;2023-01-28T04:13:04;102577.47;;;5.33;100.00
28448;BME280;15675;52.870;-1.416;2023-01-28T04:15:30;102583.06;;;5.26;100.00
28448;BME280;15675;52.870;-1.416;2023-01-28T04:17:56;102589.34;;;5.46;100.00
28448;BME280;15675;52.870;-1.416;2023-01-28T04:20:21;102593.84;;;5.50;100.00
28448;BME280;15675;52.870;-1.416;2023-01-28T04:22:47;102585.53;;;5.39;100.00
28448;BME280;15675;52.870;-1.416;2023-01-28T04:25:12;102586.66;;;5.28;100.00
28448;BME280;15675;52.870;-1.416;2023-01-28T04:27:38;102588.44;;;5.29;100.00
28448;BME280;15675;52.870;-1.416;2023-01-28T04:30:04;102588.63;;;5.17;100.00
28448;BME280;15675;52.870;-1.416;2023-01-28T04:32:30;102581.78;;;5.17;100.00
28448;BME280;15675;52.870;-1.416;2023-01-28T04:34:56;102578.69;;;5.23;100.00
28448;BME280;15675;52.870;-1.416;2023-01-28T04:37:21;102584.69;;;5.24;100.00
28448;BME280;15675;52.870;-1.416;2023-01-28T04:39:47;102589.53;;;5.34;100.00
28448;BME280;15675;52.870;-1.416;2023-01-28T04:42:13;102584.47;;;5.04;100.00
28448;BME280;15675;52.870;-1.416;2023-01-28T04:44:38;102596.88;;;5.26;100.00
28448;BME280;15675;52.870;-1.416;2023-01-28T04:47:04;102591.56;;;5.40;100.00
28448;BME280;15675;52.870;-1.416;2023-01-28T04:49:29;102594.91;;;5.53;100.00
28448;BME280;15675;52.870;-1.416;2023-01-28T04:51:55;102606.16;;;5.39;100.00
28448;BME280;15675;52.870;-1.416;2023-01-28T04:54:20;102589.13;;;5.26;100.00
28448;BME280;15675;52.870;-1.416;2023-01-28T04:56:46;102595.13;;;4.95;100.00
28448;BME280;15675;52.870;-1.416;2023-01-28T04:59:11;102594.13;;;5.08;100.00
28448;BME280;15675;52.870;-1.416;2023-01-28T05:01:37;102594.72;;;4.88;100.00
28448;BME280;15675;52.870;-1.416;2023-01-28T05:04:03;102594.19;;;4.78;100.00
28448;BME280;15675;52.870;-1.416;2023-01-28T05:06:33;102599.06;;;4.74;100.00
28448;BME280;15675;52.870;-1.416;2023-01-28T05:08:58;102591.59;;;4.78;100.00
28448;BME280;15675;52.870;-1.416;2023-01-28T05:11:24;102602.00;;;4.65;100.00
28448;BME280;15675;52.870;-1.416;2023-01-28T05:13:50;102608.56;;;4.75;100.00
28448;BME280;15675;52.870;-1.416;2023-01-28T05:16:16;102600.22;;;4.79;100.00
28448;BME280;15675;52.870;-1.416;2023-01-28T05:18:41;102604.34;;;5.07;100.00
28448;BME280;15675;52.870;-1.416;2023-01-28T05:21:07;102595.09;;;4.79;100.00
28448;BME280;15675;52.870;-1.416;2023-01-28T05:23:32;102599.31;;;4.78;100.00
28448;BME280;15675;52.870;-1.416;2023-01-28T05:25:58;102598.63;;;4.66;100.00
28448;BME280;15675;52.870;-1.416;2023-01-28T05:28:24;102610.88;;;4.85;100.00
28448;BME280;15675;52.870;-1.416;2023-01-28T05:30:49;102608.03;;;4.80;100.00
28448;BME280;15675;52.870;-1.416;2023-01-28T05:33:15;102607.72;;;5.06;100.00
28448;BME280;15675;52.870;-1.416;2023-01-28T05:35:41;102605.13;;;5.21;100.00
28448;BME280;15675;52.870;-1.416;2023-01-28T05:38:07;102596.53;;;5.05;100.00
28448;BME280;15675;52.870;-1.416;2023-01-28T05:40:33;102603.19;;;5.01;100.00
28448;BME280;15675;52.870;-1.416;2023-01-28T05:42:59;102600.91;;;4.91;100.00
28448;BME280;15675;52.870;-1.416;2023-01-28T05:45:24;102602.06;;;4.96;100.00
28448;BME280;15675;52.870;-1.416;2023-01-28T05:47:50;102600.38;;;4.97;100.00
28448;BME280;15675;52.870;-1.416;2023-01-28T05:50:15;102592.00;;;5.16;100.00
28448;BME280;15675;52.870;-1.416;2023-01-28T05:52:41;102601.63;;;5.04;100.00
28448;BME280;15675;52.870;-1.416;2023-01-28T05:55:07;102593.56;;;4.97;100.00
28448;BME280;15675;52.870;-1.416;2023-01-28T05:57:33;102584.50;;;4.89;100.00
28448;BME280;15675;52.870;-1.416;2023-01-28T05:59:58;102585.50;;;4.76;100.00
28448;BME280;15675;52.870;-1.416;2023-01-28T06:02:24;102585.22;;;4.72;100.00
28448;BME280;15675;52.870;-1.416;2023-01-28T06:04:49;102591.16;;;5.00;100.00
28448;BME280;15675;52.870;-1.416;2023-01-28T06:07:15;102584.56;;;5.06;100.00
28448;BME280;15675;52.870;-1.416;2023-01-28T06:09:45;102578.91;;;4.81;100.00
28448;BME280;15675;52.870;-1.416;2023-01-28T06:12:10;102572.91;;;4.66;100.00
28448;BME280;15675;52.870;-1.416;2023-01-28T06:14:36;102573.06;;;4.84;100.00
28448;BME280;15675;52.870;-1.416;2023-01-28T06:17:01;102579.03;;;4.68;100.00
28448;BME280;15675;52.870;-1.416;2023-01-28T06:19:27;102580.69;;;4.82;100.00
28448;BME280;15675;52.870;-1.416;2023-01-28T06:21:52;102587.34;;;4.94;100.00
28448;BME280;15675;52.870;-1.416;2023-01-28T06:24:18;102575.66;;;5.15;100.00
28448;BME280;15675;52.870;-1.416;2023-01-28T06:26:43;102573.78;;;5.28;100.00
28448;BME280;15675;52.870;-1.416;2023-01-28T06:29:09;102571.50;;;5.17;100.00
28448;BME280;15675;52.870;-1.416;2023-01-28T06:31:34;102584.91;;;5.12;100.00
28448;BME280;15675;52.870;-1.416;2023-01-28T06:34:00;102582.91;;;5.23;100.00
28448;BME280;15675;52.870;-1.416;2023-01-28T06:36:26;102573.16;;;5.17;100.00
28448;BME280;15675;52.870;-1.416;2023-01-28T06:38:51;102567.59;;;5.09;100.00
28448;BME280;15675;52.870;-1.416;2023-01-28T06:41:17;102577.13;;;4.95;100.00
28448;BME280;15675;52.870;-1.416;2023-01-28T06:43:42;102572.34;;;4.87;100.00
28448;BME280;15675;52.870;-1.416;2023-01-28T06:46:08;102577.94;;;4.79;100.00
28448;BME280;15675;52.870;-1.416;2023-01-28T06:48:33;102577.41;;;4.85;100.00
28448;BME280;15675;52.870;-1.416;2023-01-28T06:50:59;102574.13;;;4.88;100.00
28448;BME280;15675;52.870;-1.416;2023-01-28T06:53:24;102585.63;;;4.94;100.00
28448;BME280;15675;52.870;-1.416;2023-01-28T06:55:50;102577.44;;;5.01;100.00
28448;BME280;15675;52.870;-1.416;2023-01-28T06:58:15;102579.25;;;5.03;100.00
28448;BME280;15675;52.870;-1.416;2023-01-28T07:00:41;102581.81;;;5.03;100.00
28448;BME280;15675;52.870;-1.416;2023-01-28T07:03:06;102576.75;;;5.04;100.00
28448;BME280;15675;52.870;-1.416;2023-01-28T07:05:32;102573.66;;;4.95;100.00
28448;BME280;15675;52.870;-1.416;2023-01-28T07:07:58;102579.44;;;4.91;100.00
28448;BME280;15675;52.870;-1.416;2023-01-28T07:10:24;102578.03;;;4.81;100.00
28448;BME280;15675;52.870;-1.416;2023-01-28T07:12:49;102568.69;;;4.83;100.00
28448;BME280;15675;52.870;-1.416;2023-01-28T07:15:15;102566.44;;;5.04;100.00
28448;BME280;15675;52.870;-1.416;2023-01-28T07:17:41;102565.81;;;5.08;100.00
28448;BME280;15675;52.870;-1.416;2023-01-28T07:20:08;102579.97;;;4.85;100.00
28448;BME280;15675;52.870;-1.416;2023-01-28T07:22:37;102599.44;;;5.11;100.00
28448;BME280;15675;52.870;-1.416;2023-01-28T07:25:04;102597.50;;;5.07;100.00
28448;BME280;15675;52.870;-1.416;2023-01-28T07:27:30;102586.41;;;5.08;100.00
28448;BME280;15675;52.870;-1.416;2023-01-28T07:29:55;102590.56;;;5.21;100.00
28448;BME280;15675;52.870;-1.416;2023-01-28T07:32:21;102580.66;;;5.12;100.00
28448;BME280;15675;52.870;-1.416;2023-01-28T07:34:46;102580.47;;;5.09;100.00
28448;BME280;15675;52.870;-1.416;2023-01-28T07:37:12;102572.41;;;5.03;100.00
28448;BME280;15675;52.870;-1.416;2023-01-28T07:39:37;102578.22;;;5.15;100.00
28448;BME280;15675;52.870;-1.416;2023-01-28T07:42:03;102575.41;;;5.11;100.00
28448;BME280;15675;52.870;-1.416;2023-01-28T07:44:28;102602.16;;;4.98;100.00
28448;BME280;15675;52.870;-1.416;2023-01-28T07:46:54;102607.53;;;5.17;100.00
28448;BME280;15675;52.870;-1.416;2023-01-28T07:49:19;102624.00;;;5.36;100.00
28448;BME280;15675;52.870;-1.416;2023-01-28T07:51:45;102627.13;;;5.30;100.00
28448;BME280;15675;52.870;-1.416;2023-01-28T07:54:11;102621.53;;;5.38;100.00
28448;BME280;15675;52.870;-1.416;2023-01-28T07:56:37;102623.41;;;5.25;100.00
28448;BME280;15675;52.870;-1.416;2023-01-28T07:59:03;102623.38;;;5.40;100.00
28448;BME280;15675;52.870;-1.416;2023-01-28T08:01:28;102621.53;;;5.23;100.00
28448;BME280;15675;52.870;-1.416;2023-01-28T08:03:54;102602.94;;;5.12;100.00
28448;BME280;15675;52.870;-1.416;2023-01-28T08:06:19;102604.34;;;5.22;100.00
28448;BME280;15675;52.870;-1.416;2023-01-28T08:08:46;102618.00;;;5.21;100.00
28448;BME280;15675;52.870;-1.416;2023-01-28T08:11:11;102626.53;;;5.19;100.00
28448;BME280;15675;52.870;-1.416;2023-01-28T08:13:37;102629.63;;;5.14;100.00
28448;BME280;15675;52.870;-1.416;2023-01-28T08:16:03;102627.78;;;5.11;100.00
28448;BME280;15675;52.870;-1.416;2023-01-28T08:18:29;102634.09;;;5.16;100.00
28448;BME280;15675;52.870;-1.416;2023-01-28T08:20:56;102634.56;;;5.26;100.00
28448;BME280;15675;52.870;-1.416;2023-01-28T08:23:21;102631.97;;;5.09;100.00
28448;BME280;15675;52.870;-1.416;2023-01-28T08:25:47;102624.94;;;5.22;100.00
28448;BME280;15675;52.870;-1.416;2023-01-28T08:28:15;102617.75;;;5.16;100.00
28448;BME280;15675;52.870;-1.416;2023-01-28T08:30:41;102616.66;;;5.27;100.00
28448;BME280;15675;52.870;-1.416;2023-01-28T08:33:08;102617.53;;;5.28;100.00
28448;BME280;15675;52.870;-1.416;2023-01-28T08:35:34;102600.75;;;5.34;100.00
28448;BME280;15675;52.870;-1.416;2023-01-28T08:38:01;102604.75;;;5.29;100.00
28448;BME280;15675;52.870;-1.416;2023-01-28T08:40:27;102606.63;;;5.32;100.00
28448;BME280;15675;52.870;-1.416;2023-01-28T08:42:54;102607.00;;;5.23;100.00
28448;BME280;15675;52.870;-1.416;2023-01-28T08:45:21;102621.94;;;5.45;100.00
28448;BME280;15675;52.870;-1.416;2023-01-28T08:50:18;102609.59;;;5.40;100.00
28448;BME280;15675;52.870;-1.416;2023-01-28T08:52:48;102608.81;;;5.41;100.00
28448;BME280;15675;52.870;-1.416;2023-01-28T08:55:14;102597.88;;;5.13;100.00
28448;BME280;15675;52.870;-1.416;2023-01-28T08:57:40;102592.63;;;5.12;100.00
28448;BME280;15675;52.870;-1.416;2023-01-28T09:00:07;102586.88;;;5.16;100.00
28448;BME280;15675;52.870;-1.416;2023-01-28T09:02:36;102596.47;;;5.04;100.00
28448;BME280;15675;52.870;-1.416;2023-01-28T09:05:02;102594.97;;;4.92;100.00
28448;BME280;15675;52.870;-1.416;2023-01-28T09:07:28;102602.06;;;4.96;100.00
28448;BME280;15675;52.870;-1.416;2023-01-28T09:09:53;102605.69;;;5.00;100.00
28448;BME280;15675;52.870;-1.416;2023-01-28T09:12:19;102612.88;;;5.06;100.00
28448;BME280;15675;52.870;-1.416;2023-01-28T09:14:44;102603.97;;;5.47;100.00
28448;BME280;15675;52.870;-1.416;2023-01-28T09:17:10;102589.06;;;5.25;100.00
28448;BME280;15675;52.870;-1.416;2023-01-28T09:19:35;102575.66;;;5.15;100.00
28448;BME280;15675;52.870;-1.416;2023-01-28T09:22:03;102576.75;;;5.04;100.00
28448;BME280;15675;52.870;-1.416;2023-01-28T09:24:28;102573.78;;;5.28;100.00
28448;BME280;15675;52.870;-1.416;2023-01-28T09:26:54;102565.81;;;5.08;100.00
28448;BME280;15675;52.870;-1.416;2023-01-28T09:29:19;102571.75;;;5.07;100.00
28448;BME280;15675;52.870;-1.416;2023-01-28T09:31:45;102573.31;;;5.51;100.00
28448;BME280;15675;52.870;-1.416;2023-01-28T09:34:10;102576.56;;;5.47;100.00
28448;BME280;15675;52.870;-1.416;2023-01-28T09:36:36;102579.06;;;5.62;100.00
28448;BME280;15675;52.870;-1.416;2023-01-28T09:39:02;102585.47;;;5.54;100.00
28448;BME280;15675;52.870;-1.416;2023-01-28T09:41:50;102597.41;;;5.52;100.00
28448;BME280;15675;52.870;-1.416;2023-01-28T09:44:35;102603.97;;;5.47;100.00
28448;BME280;15675;52.870;-1.416;2023-01-28T09:47:21;102604.50;;;5.56;100.00
28448;BME280;15675;52.870;-1.416;2023-01-28T09:49:50;102595.25;;;5.28;100.00
28448;BME280;15675;52.870;-1.416;2023-01-28T09:52:20;102596.84;;;5.58;100.00
28448;BME280;15675;52.870;-1.416;2023-01-28T09:57:46;102607.97;;;5.90;100.00
28448;BME280;15675;52.870;-1.416;2023-01-28T10:00:28;102616.13;;;5.81;100.00
28448;BME280;15675;52.870;-1.416;2023-01-28T10:05:59;102617.84;;;5.49;100.00
28448;BME280;15675;52.870;-1.416;2023-01-28T10:11:31;102627.69;;;5.56;100.00
28448;BME280;15675;52.870;-1.416;2023-01-28T10:14:22;102624.66;;;5.48;100.00
28448;BME280;15675;52.870;-1.416;2023-01-28T10:19:53;102624.88;;;5.68;100.00
28448;BME280;15675;52.870;-1.416;2023-01-28T10:22:26;102613.06;;;5.72;100.00
28448;BME280;15675;52.870;-1.416;2023-01-28T10:24:56;102621.19;;;5.79;100.00
28448;BME280;15675;52.870;-1.416;2023-01-28T10:27:28;102626.34;;;5.79;100.00
28448;BME280;15675;52.870;-1.416;2023-01-28T10:29:56;102633.41;;;5.67;100.00
28448;BME280;15675;52.870;-1.416;2023-01-28T10:32:31;102633.94;;;5.61;100.00
28448;BME280;15675;52.870;-1.416;2023-01-28T10:34:58;102633.44;;;5.83;100.00
28448;BME280;15675;52.870;-1.416;2023-01-28T10:37:26;102635.81;;;5.64;100.00
28448;BME280;15675;52.870;-1.416;2023-01-28T10:39:56;102625.38;;;5.77;100.00
28448;BME280;15675;52.870;-1.416;2023-01-28T10:42:34;102626.03;;;5.73;100.00
28448;BME280;15675;52.870;-1.416;2023-01-28T10:50:26;102622.81;;;5.94;100.00
28448;BME280;15675;52.870;-1.416;2023-01-28T10:55:23;102613.97;;;6.05;100.00
28448;BME280;15675;52.870;-1.416;2023-01-28T10:57:52;102610.25;;;6.00;100.00
28448;BME280;15675;52.870;-1.416;2023-01-28T11:00:26;102618.56;;;6.11;100.00
28448;BME280;15675;52.870;-1.416;2023-01-28T11:02:53;102615.41;;;6.33;100.00
28448;BME280;15675;52.870;-1.416;2023-01-28T11:07:50;102604.75;;;6.27;100.00
28448;BME280;15675;52.870;-1.416;2023-01-28T11:10:31;102612.84;;;6.00;100.00
28448;BME280;15675;52.870;-1.416;2023-01-28T11:13:02;102611.91;;;6.14;100.00
28448;BME280;15675;52.870;-1.416;2023-01-28T11:15:28;102613.94;;;6.38;100.00
28448;BME280;15675;52.870;-1.416;2023-01-28T11:18:00;102623.16;;;6.33;100.00
28448;BME280;15675;52.870;-1.416;2023-01-28T11:20:28;102608.84;;;6.39;100.00
28448;BME280;15675;52.870;-1.416;2023-01-28T11:22:56;102616.66;;;6.41;100.00
28448;BME280;15675;52.870;-1.416;2023-01-28T11:25:27;102629.97;;;6.49;100.00
28448;BME280;15675;52.870;-1.416;2023-01-28T11:27:54;102625.03;;;6.53;100.00
28448;BME280;15675;52.870;-1.416;2023-01-28T11:30:35;102637.97;;;7.06;100.00
28448;BME280;15675;52.870;-1.416;2023-01-28T11:36:13;102632.69;;;6.86;100.00
28448;BME280;15675;52.870;-1.416;2023-01-28T11:38:46;102632.94;;;7.27;100.00
28448;BME280;15675;52.870;-1.416;2023-01-28T11:41:13;102632.13;;;7.10;100.00
28448;BME280;15675;52.870;-1.416;2023-01-28T11:43:40;102623.16;;;7.39;100.00
28448;BME280;15675;52.870;-1.416;2023-01-28T11:51:42;102617.97;;;7.20;100.00
28448;BME280;15675;52.870;-1.416;2023-01-28T11:59:45;102593.78;;;7.75;100.00
28448;BME280;15675;52.870;-1.416;2023-01-28T12:05:25;102594.19;;;7.65;100.00
28448;BME280;15675;52.870;-1.416;2023-01-28T12:08:44;102580.88;;;7.94;100.00
28448;BME280;15675;52.870;-1.416;2023-01-28T12:11:19;102567.50;;;8.05;100.00
28448;BME280;15675;52.870;-1.416;2023-01-28T12:25:08;102552.09;;;8.47;100.00
28448;BME280;15675;52.870;-1.416;2023-01-28T12:27:43;102546.78;;;8.24;100.00
28448;BME280;15675;52.870;-1.416;2023-01-28T12:30:37;102542.03;;;8.55;100.00
28448;BME280;15675;52.870;-1.416;2023-01-28T12:41:08;102523.66;;;8.70;100.00
28448;BME280;15675;52.870;-1.416;2023-01-28T12:49:12;102515.97;;;8.50;100.00
28448;BME280;15675;52.870;-1.416;2023-01-28T12:54:32;102510.91;;;8.74;100.00
28448;BME280;15675;52.870;-1.416;2023-01-28T12:56:58;102512.34;;;8.68;100.00
28448;BME280;15675;52.870;-1.416;2023-01-28T13:04:48;102505.84;;;8.56;100.00
28448;BME280;15675;52.870;-1.416;2023-01-28T13:10:22;102497.81;;;8.29;100.00
28448;BME280;15675;52.870;-1.416;2023-01-28T13:12:49;102497.47;;;8.41;100.00
28448;BME280;15675;52.870;-1.416;2023-01-28T13:15:17;102491.16;;;8.34;100.00
28448;BME280;15675;52.870;-1.416;2023-01-28T13:18:00;102488.22;;;8.69;100.00
28448;BME280;15675;52.870;-1.416;2023-01-28T13:20:47;102484.81;;;8.27;100.00
28448;BME280;15675;52.870;-1.416;2023-01-28T13:23:36;102493.41;;;8.26;100.00
28448;BME280;15675;52.870;-1.416;2023-01-28T13:29:18;102488.72;;;8.18;100.00
28448;BME280;15675;52.870;-1.416;2023-01-28T13:31:47;102490.06;;;8.29;100.00
28448;BME280;15675;52.870;-1.416;2023-01-28T13:34:29;102487.25;;;8.65;100.00
28448;BME280;15675;52.870;-1.416;2023-01-28T13:37:00;102487.94;;;9.06;100.00
28448;BME280;15675;52.870;-1.416;2023-01-28T13:39:27;102493.59;;;8.96;100.00
28448;BME280;15675;52.870;-1.416;2023-01-28T13:44:43;102485.59;;;9.35;100.00
28448;BME280;15675;52.870;-1.416;2023-01-28T13:47:24;102494.72;;;8.80;100.00
28448;BME280;15675;52.870;-1.416;2023-01-28T13:49:57;102486.25;;;9.07;100.00
28448;BME280;15675;52.870;-1.416;2023-01-28T13:52:29;102492.94;;;9.02;100.00
28448;BME280;15675;52.870;-1.416;2023-01-28T14:14:04;102511.19;;;9.27;100.00
28448;BME280;15675;52.870;-1.416;2023-01-28T14:16:59;102509.75;;;9.58;100.00
28448;BME280;15675;52.870;-1.416;2023-01-28T14:19:31;102496.81;;;9.84;100.00
28448;BME280;15675;52.870;-1.416;2023-01-28T14:21:58;102503.44;;;9.76;100.00
28448;BME280;15675;52.870;-1.416;2023-01-28T14:24:23;102510.84;;;9.41;100.00
28448;BME280;15675;52.870;-1.416;2023-01-28T14:27:12;102502.44;;;9.24;100.00
28448;BME280;15675;52.870;-1.416;2023-01-28T14:32:47;102517.44;;;9.32;100.00
28448;BME280;15675;52.870;-1.416;2023-01-28T14:35:18;102509.91;;;9.16;100.00
28448;BME280;15675;52.870;-1.416;2023-01-28T14:37:47;102510.81;;;9.17;100.00
28448;BME280;15675;52.870;-1.416;2023-01-28T14:40:15;102507.47;;;8.96;100.00
28448;BME280;15675;52.870;-1.416;2023-01-28T14:42:47;102500.31;;;8.68;100.00
28448;BME280;15675;52.870;-1.416;2023-01-28T14:48:10;102507.88;;;8.63;100.00
28448;BME280;15675;52.870;-1.416;2023-01-28T14:51:04;102505.53;;;8.70;100.00
28448;BME280;15675;52.870;-1.416;2023-01-28T14:56:34;102504.47;;;8.64;100.00
28448;BME280;15675;52.870;-1.416;2023-01-28T14:59:17;102508.06;;;8.68;100.00
28448;BME280;15675;52.870;-1.416;2023-01-28T15:01:46;102516.50;;;8.85;100.00
28448;BME280;15675;52.870;-1.416;2023-01-28T15:04:30;102513.94;;;8.64;100.00
28448;BME280;15675;52.870;-1.416;2023-01-28T15:07:00;102513.25;;;8.68;100.00
28448;BME280;15675;52.870;-1.416;2023-01-28T15:09:26;102508.66;;;8.61;100.00
28448;BME280;15675;52.870;-1.416;2023-01-28T15:11:54;102513.44;;;8.52;100.00
28448;BME280;15675;52.870;-1.416;2023-01-28T15:14:29;102515.06;;;8.28;100.00
28448;BME280;15675;52.870;-1.416;2023-01-28T15:16:56;102518.63;;;8.32;100.00